Volin, South Dakota
Current Conditions -  °F | °C
As of 3:35 PM on Thursday 18 Dec 2014 (Local Time) from KYKN Reporting Station
Broken Clouds Broken Clouds  
Wind Chill: 28°   Ceiling: 3700
Heat Index: 28°   Visibility: 8mi
Dew Point: 21°   Wind: 3mph
Humidity: 74%   Direction: 200°SSW
Pressure: 30.18"   Gusts: NA
Location:  42.96°N, 97.18°W
Report Text: KYKN 182135Z AUTO 20003KT 8SM SCT016 SCT030 BKN037 M02/M06 A3018 RMK AO1
Loading
Personal Weather Stations






























Interactive Weather Map New forecast layout! Learn more

10-Day Weather Forecast

Advertisements
Track Severe Weather on mobile